Time;durP1;ratioP1;P1;durP2;ratioP2;P2;SDS_P1;SDS_P2;PMS_P1;PMS_P2;Temp;Humidity;BMP_temperature;BMP_pressure;BME280_temperature;BME280_humidity;BME280_pressure;Samples;Min_cycle;Max_cycle;Signal;HPM_P1;HPM_P2
2022/02/11 00:02:17;;;;;;;16.80;8.70;;;;;;;22.52;33.97;101435.95;104617;1308;72927;-83
2022/02/11 00:07:56;;;;;;;16.40;8.20;;;;;;;22.52;34.24;101431.46;104529;1308;61972;-84
2022/02/11 00:10:31;;;;;;;15.70;9.10;;;;;;;22.52;34.19;101425.55;104532;1308;61966;-84
2022/02/11 00:13:31;;;;;;;16.10;8.80;;;;;;;22.52;34.15;101424.45;104526;1308;71561;-84
2022/02/11 00:16:20;;;;;;;15.30;8.50;;;;;;;22.52;34.05;101424.81;104511;1308;76778;-86
2022/02/11 00:19:09;;;;;;;;;;;;;;;;;;;;;
2022/02/11 00:21:42;;;;;;;;;;;;;;;;;;;;;
2022/02/11 00:24:36;;;;;;;15.30;8.60;;;;;;;22.53;34.00;101416.33;104454;1308;72873;-88
2022/02/11 00:27:52;;;;;;;14.60;8.40;;;;;;;22.53;33.98;101410.95;104453;1308;75755;-83
2022/02/11 00:33:43;;;;;;;;;;;;;;;;;;;;;
2022/02/11 00:36:41;;;;;;;15.60;8.60;;;;;;;22.52;34.12;101411.20;104455;1308;74030;-86
2022/02/11 01:03:47;;;;;;;13.00;8.20;;;;;;;22.51;33.99;101406.20;104276;1313;75599;-84
2022/02/11 01:06:38;;;;;;;;;;;;;;;;;;;;;
2022/02/11 01:09:26;;;;;;;15.50;8.30;;;;;;;22.52;33.95;101398.84;104254;1311;62116;-84
2022/02/11 01:12:04;;;;;;;16.90;8.50;;;;;;;22.51;34.15;101397.25;104358;1311;74312;-84
2022/02/11 01:14:48;;;;;;;16.00;8.20;;;;;;;22.52;34.11;101399.52;104341;1311;76886;-82
2022/02/11 01:18:17;;;;;;;12.80;8.40;;;;;;;22.52;33.99;101398.80;104295;1311;61959;-80
2022/02/11 01:20:57;;;;;;;;;;;;;;;;;;;;;
2022/02/11 01:23:55;;;;;;;13.30;8.20;;;;;;;22.52;33.87;101397.38;104313;1311;73061;-81
2022/02/11 01:26:55;;;;;;;13.90;8.00;;;;;;;22.52;34.02;101396.64;104318;1311;75441;-88
2022/02/11 01:56:55;;;;;;;13.60;8.20;;;;;;;22.53;34.11;101376.33;103066;1319;62141;-86
2022/02/11 02:00:23;;;;;;;12.80;8.00;;;;;;;22.53;34.01;101375.73;103375;1319;72973;-86
2022/02/11 02:08:40;;;;;;;15.30;8.70;;;;;;;22.52;34.05;101370.62;102955;1326;62130;-83
2022/02/11 02:10:03;;;;;;;14.60;8.00;;;;;;;22.53;34.02;101368.02;103053;1323;62387;-82
2022/02/11 02:12:50;;;;;;;;;;;;;;;;;;;;;
2022/02/11 02:22:09;;;;;;;14.20;7.90;;;;;;;22.54;33.97;101362.09;102784;1325;62071;-82
2022/02/11 02:25:32;;;;;;;12.00;7.40;;;;;;;22.53;34.04;101360.66;102581;1328;73223;-81
2022/02/11 02:59:15;;;;;;;13.20;7.90;;;;;;;22.53;34.04;101338.09;104210;1313;61931;-86
2022/02/11 03:02:11;;;;;;;13.20;8.10;;;;;;;22.53;33.92;101336.83;104231;1313;73748;-85
2022/02/11 03:31:32;;;;;;;13.00;8.50;;;;;;;22.53;34.01;101348.88;103304;1319;77258;-82
2022/02/11 03:49:18;;;;;;;14.40;8.50;;;;;;;22.53;34.02;101352.45;104164;1316;62074;-85
2022/02/11 03:55:21;;;;;;;14.30;8.50;;;;;;;22.54;34.01;101348.95;103524;1313;75879;-84
2022/02/11 03:58:37;;;;;;;12.70;8.40;;;;;;;22.54;33.89;101346.45;104174;1312;62239;-92
2022/02/11 04:55:22;;;;;;;11.50;8.80;;;;;;;22.54;33.91;101338.38;103581;1313;76574;-81
2022/02/11 05:00:56;;;;;;;11.30;8.60;;;;;;;22.55;33.91;101339.23;104148;1314;62117;-88
2022/02/11 05:03:42;;;;;;;15.00;9.00;;;;;;;22.55;33.77;101340.09;104214;1313;73185;-87
2022/02/11 05:06:23;;;;;;;13.90;9.20;;;;;;;22.56;33.86;101346.15;104280;1313;75566;-86
2022/02/11 05:09:02;;;;;;;13.60;8.80;;;;;;;22.56;33.77;101344.88;104298;1313;62029;-90
2022/02/11 05:11:48;;;;;;;13.50;9.20;;;;;;;22.56;33.86;101350.45;104243;1314;62112;-84
2022/02/11 05:14:34;;;;;;;;;;;;;;;;;;;;;
2022/02/11 05:17:09;;;;;;;12.80;9.10;;;;;;;22.56;33.92;101358.14;104207;1313;76666;-83
2022/02/11 05:19:56;;;;;;;15.60;9.10;;;;;;;22.56;33.80;101359.59;104169;1313;60257;-85
2022/02/11 05:22:42;;;;;;;14.60;9.20;;;;;;;22.56;33.94;101364.79;103694;1316;62254;-81
2022/02/11 05:25:28;;;;;;;12.80;9.30;;;;;;;22.56;33.83;101366.39;104144;1313;74011;-86
2022/02/11 05:28:14;;;;;;;13.80;9.50;;;;;;;22.57;33.82;101373.90;104187;1313;75693;-82
2022/02/11 05:30:53;;;;;;;;;;;;;;;;;;;;;
2022/02/11 05:33:20;;;;;;;;;;;;;;;22.56;33.80;101374.11;104500;1308;62093;-84
2022/02/11 05:35:58;;;;;;;13.80;9.70;;;;;;;22.54;33.74;101375.70;104512;1307;74126;-81
2022/02/11 05:38:33;;;;;;;13.60;9.50;;;;;;;22.55;33.54;101377.63;104208;1308;76887;-81
2022/02/11 05:41:12;;;;;;;;;;;;;;;;;;;;;
2022/02/11 05:44:05;;;;;;;13.30;8.90;;;;;;;22.56;33.43;101384.52;104450;1308;62116;-84
2022/02/11 05:46:43;;;;;;;13.90;9.40;;;;;;;22.56;33.34;101385.41;104479;1310;72804;-83
2022/02/11 05:49:33;;;;;;;;;;;;;;;;;;;;;
2022/02/11 05:52:27;;;;;;;15.50;10.80;;;;;;;22.57;33.04;101389.85;104532;1307;62112;-84
2022/02/11 05:55:03;;;;;;;15.10;10.80;;;;;;;22.57;33.04;101388.40;104474;1307;62019;-84
2022/02/11 05:57:34;;;;;;;14.80;10.60;;;;;;;22.58;32.90;101393.53;104057;1308;72733;-83
2022/02/11 06:00:02;;;;;;;14.80;10.30;;;;;;;22.59;32.89;101390.09;103832;1308;76240;-80
2022/02/11 06:02:29;;;;;;;13.10;10.10;;;;;;;22.59;32.92;101387.16;104292;1308;62086;-82
2022/02/11 06:04:55;;;;;;;13.50;9.80;;;;;;;22.61;32.73;101391.58;104220;1307;61998;-82
2022/02/11 06:07:21;;;;;;;13.10;9.70;;;;;;;22.62;32.72;101389.16;104400;1308;62233;-82
2022/02/11 06:09:49;;;;;;;14.60;10.20;;;;;;;22.63;32.95;101393.44;104408;1307;63536;-84
2022/02/11 06:12:15;;;;;;;14.70;10.00;;;;;;;22.64;32.84;101392.63;104195;1308;62139;-81
2022/02/11 06:14:42;;;;;;;14.80;9.30;;;;;;;22.65;32.88;101395.61;104237;1306;62066;-82
2022/02/11 06:17:25;;;;;;;12.20;9.50;;;;;;;22.66;32.90;101392.31;104365;1308;72610;-82
2022/02/11 06:19:51;;;;;;;15.30;9.80;;;;;;;22.66;33.03;101398.73;104423;1308;75755;-84
2022/02/11 06:22:24;;;;;;;14.20;9.70;;;;;;;22.66;32.96;101400.52;104311;1308;62062;-84
2022/02/11 06:24:53;;;;;;;16.80;10.30;;;;;;;22.67;33.06;101403.69;104431;1305;62091;-83
2022/02/11 06:27:19;;;;;;;14.90;9.60;;;;;;;22.67;32.96;101410.33;104440;1308;72946;-83
2022/02/11 06:29:45;;;;;;;12.20;9.70;;;;;;;22.67;32.96;101408.52;104287;1305;62204;-81
2022/02/11 06:32:12;;;;;;;13.90;10.30;;;;;;;22.67;33.07;101407.98;104337;1305;62086;-84
2022/02/11 06:34:40;;;;;;;16.20;11.50;;;;;;;22.68;32.69;101413.00;104409;1305;62086;-81
2022/02/11 06:37:06;;;;;;;16.10;11.60;;;;;;;22.67;32.68;101409.29;104180;1308;62077;-81
2022/02/11 06:39:36;;;;;;;17.20;11.30;;;;;;;22.67;32.55;101410.69;104311;1305;64302;-82
2022/02/11 06:42:04;;;;;;;14.70;11.60;;;;;;;22.68;32.57;101411.02;104234;1308;62142;-82
2022/02/11 06:44:31;;;;;;;12.80;10.20;;;;;;;22.67;32.35;101414.45;104234;1308;62048;-81
2022/02/11 06:46:57;;;;;;;15.40;10.60;;;;;;;22.68;32.26;101413.48;104471;1307;61992;-80
2022/02/11 06:49:24;;;;;;;13.40;9.70;;;;;;;22.68;32.15;101416.34;104272;1306;75601;-81
2022/02/11 06:51:49;;;;;;;17.00;10.20;;;;;;;22.69;32.28;101415.94;104011;1308;62225;-82
2022/02/11 06:54:39;;;;;;;17.00;11.30;;;;;;;22.70;32.31;101415.90;104196;1307;62145;-81
2022/02/11 06:57:05;;;;;;;16.00;11.20;;;;;;;22.71;32.12;101414.23;103952;1313;73623;-82
2022/02/11 06:59:31;;;;;;;19.40;11.50;;;;;;;22.72;32.24;101415.58;103977;1313;63636;-81
2022/02/11 07:01:58;;;;;;;16.90;11.00;;;;;;;22.71;31.99;101419.00;104063;1312;62129;-81
2022/02/11 07:04:29;;;;;;;16.20;10.80;;;;;;;22.72;31.94;101425.77;104065;1316;62124;-87
2022/02/11 07:06:55;;;;;;;14.80;10.60;;;;;;;22.72;31.84;101427.96;103979;1314;73025;-82
2022/02/11 07:09:23;;;;;;;16.70;10.90;;;;;;;22.72;31.92;101430.27;103946;1313;62183;-81
2022/02/11 07:11:49;;;;;;;14.60;11.20;;;;;;;22.73;31.63;101428.63;104088;1312;62112;-82
2022/02/11 07:14:16;;;;;;;17.90;11.80;;;;;;;22.73;31.62;101423.05;103744;1314;62122;-81
2022/02/11 07:16:44;;;;;;;14.40;10.80;;;;;;;22.73;31.50;101425.38;103806;1314;62090;-81
2022/02/11 07:19:13;;;;;;;16.20;10.90;;;;;;;22.73;31.38;101422.16;103883;1314;74696;-85
2022/02/11 07:21:40;;;;;;;14.90;10.70;;;;;;;22.72;31.34;101421.46;103896;1313;62129;-80
2022/02/11 07:24:10;;;;;;;19.10;11.00;;;;;;;22.72;31.40;101422.00;103956;1314;61499;-84
2022/02/11 07:26:36;;;;;;;16.40;10.70;;;;;;;22.72;31.22;101414.99;103914;1314;72832;-80
2022/02/11 07:29:02;;;;;;;17.70;11.20;;;;;;;22.72;31.21;101415.92;104045;1313;62228;-82
2022/02/11 07:31:29;;;;;;;15.60;10.70;;;;;;;22.73;31.02;101414.95;104046;1314;62095;-84
2022/02/11 07:34:23;;;;;;;12.50;10.10;;;;;;;22.73;31.13;101412.60;104030;1305;62051;-83
2022/02/11 07:36:58;;;;;;;16.20;9.90;;;;;;;22.74;31.27;101412.91;104341;1306;72655;-82
2022/02/11 07:39:23;;;;;;;17.70;10.70;;;;;;;22.74;31.28;101408.79;104308;1305;75459;-82
2022/02/11 07:41:52;;;;;;;16.50;10.30;;;;;;;22.73;31.33;101408.83;104607;1305;62189;-85
2022/02/11 07:44:22;;;;;;;12.80;9.60;;;;;;;22.74;31.41;101404.33;104466;1305;61952;-81
2022/02/11 07:46:51;;;;;;;14.30;9.70;;;;;;;22.74;31.59;101401.60;104476;1305;73207;-83
2022/02/11 07:49:39;;;;;;;14.70;9.10;;;;;;;22.74;31.51;101398.01;104576;1305;74698;-83
2022/02/11 07:52:05;;;;;;;14.50;9.50;;;;;;;22.74;31.89;101396.23;104467;1308;61944;-81
2022/02/11 07:54:34;;;;;;;15.20;9.50;;;;;;;22.75;31.62;101393.66;104497;1305;62123;-81
2022/02/11 07:56:59;;;;;;;14.70;9.60;;;;;;;22.74;31.72;101392.98;104378;1305;62108;-84
2022/02/11 07:59:33;;;;;;;13.90;9.30;;;;;;;22.74;31.77;101391.69;104382;1308;63076;-80
2022/02/11 08:01:58;;;;;;;13.30;9.70;;;;;;;22.75;32.06;101386.27;104538;1304;62025;-81
2022/02/11 08:04:27;;;;;;;12.70;9.20;;;;;;;22.76;32.08;101389.80;104332;1305;61399;-85
2022/02/11 08:07:01;;;;;;;14.00;9.10;;;;;;;22.76;32.02;101390.90;104441;1305;62189;-82
2022/02/11 08:09:37;;;;;;;10.10;8.10;;;;;;;22.76;31.97;101392.86;104542;1305;76775;-82
2022/02/11 08:12:24;;;;;;;14.80;8.70;;;;;;;22.77;32.01;101393.90;104569;1305;62163;-83
2022/02/11 08:14:58;;;;;;;12.40;8.80;;;;;;;22.76;32.07;101397.88;104671;1305;62059;-84
2022/02/11 08:17:46;;;;;;;;;;;;;;;;;;;;;
2022/02/11 08:20:13;;;;;;;12.80;8.90;;;;;;;22.76;32.06;101395.70;104544;1308;75653;-83
2022/02/11 08:22:52;;;;;;;12.40;9.10;;;;;;;22.76;32.16;101393.04;104488;1304;62014;-85
2022/02/11 08:25:27;;;;;;;14.10;8.90;;;;;;;22.76;31.93;101395.02;104694;1305;62003;-82
2022/02/11 08:28:05;;;;;;;12.50;9.10;;;;;;;22.76;32.02;101397.52;104527;1305;73886;-84
2022/02/11 08:30:31;;;;;;;14.00;9.00;;;;;;;22.76;31.93;101396.98;104427;1305;75475;-84
2022/02/11 08:33:06;;;;;;;12.40;9.10;;;;;;;22.76;31.87;101395.05;104579;1305;62134;-82
2022/02/11 08:35:44;;;;;;;14.30;8.60;;;;;;;22.75;31.90;101393.28;104381;1305;62004;-79
2022/02/11 08:38:16;;;;;;;;;;;;;;;22.75;31.71;101398.46;104578;1305;72786;-81
2022/02/11 08:40:45;;;;;;;13.00;8.60;;;;;;;22.73;31.70;101395.77;104580;1305;76714;-82
2022/02/11 08:43:21;;;;;;;13.10;9.00;;;;;;;22.74;31.71;101399.98;104586;1305;61969;-83
2022/02/11 08:45:57;;;;;;;12.20;9.50;;;;;;;22.74;31.50;101401.39;104506;1306;62058;-80
2022/02/11 08:48:27;;;;;;;12.70;8.40;;;;;;;22.75;31.43;101399.04;104385;1308;73929;-82
2022/02/11 08:50:52;;;;;;;12.30;9.50;;;;;;;22.75;31.56;101399.55;104500;1308;75701;-81
2022/02/11 08:53:30;;;;;;;13.00;8.60;;;;;;;22.75;31.24;101399.73;104361;1308;62041;-83
2022/02/11 08:55:55;;;;;;;11.80;8.20;;;;;;;22.76;31.37;101392.31;104456;1308;61446;-81
2022/02/11 08:58:21;;;;;;;12.90;9.20;;;;;;;22.77;31.28;101390.12;104441;1308;61943;-82
2022/02/11 09:00:50;;;;;;;14.00;8.20;;;;;;;22.76;31.30;101390.66;104295;1308;62149;-81
2022/02/11 09:03:19;;;;;;;11.30;8.50;;;;;;;22.78;31.24;101391.29;104325;1308;62079;-82
2022/02/11 09:05:46;;;;;;;11.50;8.40;;;;;;;22.79;31.47;101391.25;104477;1305;62258;-84
2022/02/11 09:08:35;;;;;;;13.20;8.10;;;;;;;22.79;31.60;101391.94;104472;1305;71936;-83
2022/02/11 09:11:09;;;;;;;12.30;8.60;;;;;;;22.80;31.49;101392.98;104495;1303;75415;-81
2022/02/11 09:13:37;;;;;;;10.90;8.90;;;;;;;22.80;31.46;101391.31;104494;1305;62223;-81
2022/02/11 09:16:30;;;;;;;12.20;8.00;;;;;;;22.81;31.61;101389.45;104550;1305;64283;-82
2022/02/11 09:18:58;;;;;;;12.00;8.20;;;;;;;22.81;31.58;101387.65;104318;1308;72835;-81
2022/02/11 09:21:24;;;;;;;14.30;9.00;;;;;;;22.82;31.44;101386.52;104464;1306;76621;-80
2022/02/11 09:23:49;;;;;;;11.10;8.30;;;;;;;22.83;31.61;101381.64;104319;1308;62220;-82
2022/02/11 09:26:18;;;;;;;10.60;8.40;;;;;;;22.84;31.55;101376.91;104511;1308;62183;-81
2022/02/11 09:28:44;;;;;;;15.40;9.30;;;;;;;22.84;31.33;101372.78;104465;1307;73660;-80
2022/02/11 09:31:23;;;;;;;12.80;9.70;;;;;;;22.83;31.28;101370.63;104281;1308;62287;-82
2022/02/11 09:33:55;;;;;;;14.10;8.70;;;;;;;22.84;31.41;101366.48;104576;1306;63218;-82
2022/02/11 09:36:50;;;;;;;12.70;9.40;;;;;;;22.84;31.45;101361.47;104451;1308;62049;-81
2022/02/11 09:39:38;;;;;;;12.60;9.40;;;;;;;22.83;31.15;101355.41;104176;1314;72669;-84
2022/02/11 09:42:09;;;;;;;11.70;9.00;;;;;;;22.84;31.25;101351.05;104121;1314;75561;-85
2022/02/11 09:44:55;;;;;;;16.20;8.70;;;;;;;22.84;31.23;101344.90;104047;1314;62001;-82
2022/02/11 09:47:28;;;;;;;13.20;9.30;;;;;;;22.84;31.00;101347.80;104155;1313;62235;-87
2022/02/11 09:50:04;;;;;;;12.30;9.20;;;;;;;22.84;31.09;101345.30;104211;1314;72871;-82
2022/02/11 09:52:59;;;;;;;12.40;9.10;;;;;;;22.84;31.03;101344.05;103787;1314;74318;-84
2022/02/11 09:55:32;;;;;;;12.00;8.70;;;;;;;22.83;31.10;101340.15;103383;1319;62152;-84
2022/02/11 09:58:50;;;;;;;11.60;8.50;;;;;;;22.83;31.12;101344.06;103296;1320;62129;-82
2022/02/11 10:01:23;;;;;;;14.00;8.80;;;;;;;22.84;31.18;101336.53;102554;1325;73659;-83
2022/02/11 10:04:09;;;;;;;11.70;8.30;;;;;;;22.84;31.15;101334.21;102837;1325;75583;-81
2022/02/11 10:06:48;;;;;;;12.00;8.80;;;;;;;22.84;31.18;101329.54;102780;1326;62123;-85
2022/02/11 10:09:22;;;;;;;14.30;8.80;;;;;;;22.84;31.17;101327.20;102657;1326;61997;-82
2022/02/11 10:11:55;;;;;;;14.80;8.90;;;;;;;22.84;31.27;101322.88;102699;1326;72822;-80
2022/02/11 10:14:34;;;;;;;11.10;9.00;;;;;;;22.84;31.26;101317.99;102936;1325;74489;-81
2022/02/11 10:17:16;;;;;;;12.60;9.30;;;;;;;22.84;31.22;101316.91;103326;1319;60524;-80
2022/02/11 10:19:50;;;;;;;13.90;9.10;;;;;;;22.84;31.12;101319.78;103185;1318;553553;-82
2022/02/11 10:22:25;;;;;;;14.50;9.20;;;;;;;22.85;31.09;101322.43;103436;1319;73861;-81
2022/02/11 10:24:57;;;;;;;13.10;9.30;;;;;;;22.85;31.12;101315.63;103348;1319;75982;-81
2022/02/11 10:27:52;;;;;;;12.10;9.40;;;;;;;22.85;31.14;101308.64;103332;1319;62113;-81
2022/02/11 10:30:22;;;;;;;12.70;9.60;;;;;;;22.85;30.91;101303.62;103393;1319;62068;-80
2022/02/11 10:32:53;;;;;;;12.40;9.40;;;;;;;22.86;30.91;101293.11;103737;1313;73819;-82
2022/02/11 10:35:25;;;;;;;14.20;9.40;;;;;;;22.85;31.09;101283.27;104174;1313;76029;-87
2022/02/11 10:38:13;;;;;;;13.40;9.00;;;;;;;22.86;30.89;101277.67;104258;1305;62140;-82
2022/02/11 10:40:49;;;;;;;14.90;9.40;;;;;;;22.85;31.04;101269.64;104568;1305;62003;-84
2022/02/11 10:43:33;;;;;;;12.20;9.30;;;;;;;22.85;30.90;101272.17;104610;1305;73767;-85
2022/02/11 10:46:02;;;;;;;13.60;9.40;;;;;;;22.85;30.87;101280.05;104704;1305;74481;-87
2022/02/11 10:48:50;;;;;;;16.80;10.20;;;;;;;22.85;30.78;101282.59;104603;1305;62926;-79
2022/02/11 10:51:26;;;;;;;14.70;10.30;;;;;;;22.85;30.67;101281.36;104628;1305;62040;-82
2022/02/11 10:54:00;;;;;;;14.90;9.70;;;;;;;22.84;30.81;101281.02;104570;1305;74436;-81
2022/02/11 10:56:39;;;;;;;14.30;10.20;;;;;;;22.85;30.79;101277.42;104380;1305;76666;-81
2022/02/11 10:59:13;;;;;;;13.30;10.00;;;;;;;22.85;30.82;101272.55;104632;1305;62097;-81
2022/02/11 11:01:48;;;;;;;14.10;10.00;;;;;;;22.85;30.81;101267.33;104482;1307;62099;-81
2022/02/11 11:04:22;;;;;;;14.00;9.60;;;;;;;22.85;30.68;101260.31;104490;1307;73913;-81
2022/02/11 11:07:00;;;;;;;12.60;9.80;;;;;;;22.86;30.84;101256.83;104363;1305;76758;-83
2022/02/11 11:09:34;;;;;;;14.30;10.30;;;;;;;22.87;30.73;101254.96;104544;1307;62124;-85
2022/02/11 11:12:05;;;;;;;14.00;10.40;;;;;;;22.87;30.54;101250.34;104506;1308;61895;-90
2022/02/11 11:14:51;;;;;;;13.20;10.10;;;;;;;22.86;30.60;101250.37;104497;1306;74293;-81
2022/02/11 11:17:19;;;;;;;14.40;9.90;;;;;;;22.87;30.68;101248.37;104447;1306;75975;-80
2022/02/11 11:19:54;;;;;;;12.80;9.60;;;;;;;22.87;30.81;101244.20;104351;1308;62038;-81
2022/02/11 11:22:43;;;;;;;12.30;9.70;;;;;;;22.87;30.85;101241.14;104257;1308;61911;-81
2022/02/11 11:25:11;;;;;;;13.60;10.20;;;;;;;22.87;30.80;101241.15;104301;1308;73777;-85
2022/02/11 11:27:49;;;;;;;14.30;9.50;;;;;;;22.87;30.68;101239.52;104172;1309;75839;-82
2022/02/11 11:30:40;;;;;;;14.30;9.50;;;;;;;22.89;30.61;101238.88;104524;1308;61983;-80
2022/02/11 11:33:12;;;;;;;14.50;8.90;;;;;;;22.88;30.81;101232.98;104128;1308;61874;-81
2022/02/11 11:36:07;;;;;;;12.20;9.90;;;;;;;22.89;30.64;101229.86;104331;1308;74150;-85
2022/02/11 11:38:48;;;;;;;12.70;9.20;;;;;;;22.89;30.79;101222.31;104561;1308;74546;-83
2022/02/11 11:41:21;;;;;;;13.10;9.00;;;;;;;22.90;30.61;101224.94;104472;1308;62198;-84
2022/02/11 11:44:21;;;;;;;14.30;9.60;;;;;;;22.91;30.84;101222.93;104401;1306;62596;-81
2022/02/11 11:46:51;;;;;;;13.20;9.20;;;;;;;22.92;30.92;101219.65;104400;1311;72916;-79
2022/02/11 11:49:26;;;;;;;13.40;8.90;;;;;;;22.92;30.91;101218.15;104221;1309;75989;-84
2022/02/11 11:52:15;;;;;;;15.50;8.70;;;;;;;22.93;31.05;101211.49;104292;1311;62815;-85
2022/02/11 11:55:35;;;;;;;11.80;8.30;;;;;;;22.93;30.99;101211.66;104312;1311;62254;-84
2022/02/11 11:58:06;;;;;;;10.90;8.40;;;;;;;22.93;31.25;101208.45;103546;1318;74073;-80
2022/02/11 12:00:49;;;;;;;14.00;9.50;;;;;;;22.94;31.26;101209.45;103369;1319;75611;-82
2022/02/11 12:03:26;;;;;;;13.70;9.20;;;;;;;22.94;31.34;101208.38;103374;1319;62318;-83
2022/02/11 12:06:03;;;;;;;12.40;8.80;;;;;;;22.94;31.27;101204.39;103249;1322;62033;-90
2022/02/11 12:08:45;;;;;;;12.60;8.90;;;;;;;22.95;31.29;101201.66;103479;1320;72868;-85
2022/02/11 12:11:12;;;;;;;11.60;8.30;;;;;;;22.95;31.32;101197.71;103191;1319;75723;-85
2022/02/11 12:13:46;;;;;;;11.50;8.20;;;;;;;22.94;31.43;101196.84;103362;1319;62105;-84
2022/02/11 12:16:24;;;;;;;13.50;8.70;;;;;;;22.96;31.48;101194.98;103466;1318;62138;-81
2022/02/11 12:19:04;;;;;;;10.70;8.10;;;;;;;22.96;31.59;101199.08;103539;1319;73336;-84
2022/02/11 12:21:34;;;;;;;12.20;8.50;;;;;;;22.96;31.75;101196.77;103449;1319;76771;-82
2022/02/11 12:27:20;;;;;;;10.90;8.20;;;;;;;22.97;31.75;101193.30;103939;1313;62190;-83
2022/02/11 12:30:42;;;;;;;10.70;7.50;;;;;;;22.96;31.74;101190.27;104444;1308;73924;-81
2022/02/11 12:33:08;;;;;;;11.00;8.20;;;;;;;22.97;31.65;101186.25;104171;1313;76691;-81
2022/02/11 12:35:51;;;;;;;10.50;7.70;;;;;;;22.97;31.92;101186.61;104153;1313;62183;-81
2022/02/11 12:38:20;;;;;;;11.50;8.70;;;;;;;22.98;31.86;101185.81;104031;1313;62106;-80
2022/02/11 12:40:46;;;;;;;11.10;7.80;;;;;;;22.98;31.86;101183.65;103971;1314;72936;-81
2022/02/11 12:43:19;;;;;;;10.50;7.90;;;;;;;22.99;31.93;101180.92;103915;1313;62138;-81
2022/02/11 12:45:45;;;;;;;10.80;8.20;;;;;;;22.99;32.02;101175.69;103823;1313;61950;-80
2022/02/11 12:48:16;;;;;;;;;;;;;;;23.00;31.89;101176.91;104097;1314;61978;-81
2022/02/11 12:50:53;;;;;;;11.60;7.50;;;;;;;22.98;32.04;101180.27;103973;1313;72884;-81
2022/02/11 12:53:20;;;;;;;10.60;7.40;;;;;;;22.99;31.98;101186.67;103976;1314;76661;-81
2022/02/11 12:55:50;;;;;;;11.40;7.70;;;;;;;22.99;32.17;101180.17;103852;1314;62057;-80
2022/02/11 12:58:18;;;;;;;11.20;7.50;;;;;;;22.99;32.16;101178.91;103868;1313;62286;-81
2022/02/11 13:00:46;;;;;;;10.40;7.50;;;;;;;23.00;32.00;101184.98;103695;1313;73088;-82
2022/02/11 13:03:13;;;;;;;10.50;7.40;;;;;;;23.01;32.15;101187.77;103942;1313;76629;-80
2022/02/11 13:05:44;;;;;;;10.30;7.30;;;;;;;23.02;32.15;101188.42;103982;1313;62411;-82
2022/02/11 13:08:21;;;;;;;10.50;8.30;;;;;;;23.02;32.36;101184.10;103735;1316;61995;-82
2022/02/11 13:10:55;;;;;;;12.00;7.50;;;;;;;23.02;32.32;101177.98;104491;1306;72560;-81
2022/02/11 13:13:20;;;;;;;11.00;7.50;;;;;;;23.03;32.28;101180.26;104397;1307;75850;-81
2022/02/11 13:15:49;;;;;;;9.90;7.70;;;;;;;23.03;32.44;101179.52;104366;1308;62087;-85
2022/02/11 13:18:26;;;;;;;9.50;7.50;;;;;;;23.04;32.45;101179.84;104441;1306;62270;-82
2022/02/11 13:20:53;;;;;;;10.40;7.50;;;;;;;23.04;32.44;101175.31;104514;1306;72846;-80
2022/02/11 13:23:26;;;;;;;10.10;7.10;;;;;;;23.05;32.29;101172.41;104400;1307;76651;-82
2022/02/11 13:25:56;;;;;;;12.00;7.50;;;;;;;23.05;32.32;101173.30;104257;1306;61883;-82
2022/02/11 13:28:48;;;;;;;10.60;7.80;;;;;;;23.05;32.24;101174.35;104446;1307;62028;-83
2022/02/11 13:31:22;;;;;;;10.70;7.60;;;;;;;23.05;32.41;101169.70;104437;1306;72822;-82
2022/02/11 13:34:11;;;;;;;;;;;;;;;23.05;32.36;101167.01;104480;1306;75611;-83
2022/02/11 13:37:01;;;;;;;;;;;;;;;;;;;;;
2022/02/11 13:39:43;;;;;;;11.30;7.80;;;;;;;23.04;32.32;101166.38;104526;1307;61989;-86
2022/02/11 13:42:24;;;;;;;11.00;7.70;;;;;;;23.04;32.34;101162.23;104593;1306;73902;-82
2022/02/11 13:45:19;;;;;;;9.80;7.40;;;;;;;23.04;32.46;101164.03;104502;1306;76656;-84
2022/02/11 13:48:07;;;;;;;9.70;7.20;;;;;;;23.03;32.41;101162.80;104109;1314;62101;-81
2022/02/11 13:51:12;;;;;;;10.70;6.80;;;;;;;23.04;32.50;101165.48;104255;1314;61987;-84
2022/02/11 13:53:59;;;;;;;10.00;7.20;;;;;;;23.03;32.48;101159.07;104230;1313;74229;-82
2022/02/11 13:56:52;;;;;;;10.80;7.30;;;;;;;23.03;32.45;101159.05;103971;1313;75542;-83
2022/02/11 13:59:29;;;;;;;10.90;7.50;;;;;;;23.04;32.56;101154.35;103283;1319;62129;-82
2022/02/11 14:02:15;;;;;;;10.00;7.40;;;;;;;23.04;32.62;101157.55;103203;1320;62283;-83
2022/02/11 14:05:02;;;;;;;9.10;7.00;;;;;;;23.05;32.58;101154.44;103190;1319;72006;-81
2022/02/11 14:07:30;;;;;;;11.40;7.40;;;;;;;23.05;32.67;101157.10;103143;1319;76151;-83
2022/02/11 14:09:58;;;;;;;10.70;7.50;;;;;;;23.06;32.45;101158.49;103175;1319;62129;-81
2022/02/11 14:12:23;;;;;;;9.50;7.10;;;;;;;23.06;32.51;101155.95;103199;1319;61985;-84
2022/02/11 14:15:07;;;;;;;8.70;6.50;;;;;;;23.06;32.55;101148.41;103186;1320;73992;-80
2022/02/11 14:17:34;;;;;;;11.30;7.40;;;;;;;23.07;32.54;101148.00;103222;1320;76473;-84
2022/02/11 14:20:04;;;;;;;9.40;7.30;;;;;;;23.07;32.56;101145.63;103086;1319;62112;-83
2022/02/11 14:22:32;;;;;;;9.40;7.10;;;;;;;23.08;32.61;101146.27;103009;1320;62128;-80
2022/02/11 14:25:05;;;;;;;10.40;7.40;;;;;;;23.08;32.61;101143.58;103389;1313;73848;-82
2022/02/11 14:27:33;;;;;;;10.70;7.30;;;;;;;23.09;32.36;101140.27;103997;1313;62214;-82
2022/02/11 14:30:08;;;;;;;10.30;7.30;;;;;;;23.10;32.48;101142.77;104025;1315;62011;-81
2022/02/11 14:32:37;;;;;;;9.60;7.10;;;;;;;23.10;32.60;101141.64;104062;1313;62053;-81
2022/02/11 14:35:03;;;;;;;9.90;7.10;;;;;;;23.10;32.56;101140.94;103969;1314;74063;-83
2022/02/11 14:37:38;;;;;;;11.70;6.70;;;;;;;23.10;32.49;101141.83;104248;1308;62506;-86
2022/02/11 14:40:08;;;;;;;11.60;6.90;;;;;;;23.11;32.54;101141.27;104469;1308;61989;-84
2022/02/11 14:42:49;;;;;;;9.40;7.00;;;;;;;23.12;32.62;101145.87;104488;1308;62116;-83
2022/02/11 14:45:23;;;;;;;10.90;6.80;;;;;;;23.13;32.47;101149.77;104457;1308;72933;-85
2022/02/11 14:48:01;;;;;;;9.40;6.80;;;;;;;23.12;32.66;101149.96;104370;1310;75625;-84
2022/02/11 14:50:47;;;;;;;10.60;6.60;;;;;;;23.12;32.51;101154.64;104479;1308;62094;-88
2022/02/11 14:53:19;;;;;;;10.20;7.30;;;;;;;23.12;32.58;101157.53;104507;1308;62073;-86
2022/02/11 14:55:54;;;;;;;10.00;7.00;;;;;;;23.12;32.77;101155.17;104602;1308;73883;-83
2022/02/11 14:58:31;;;;;;;8.10;6.20;;;;;;;23.13;32.62;101157.65;104476;1308;76763;-84
2022/02/11 15:01:25;;;;;;;;;;;;;;;;;;;;;
2022/02/11 15:03:57;;;;;;;9.80;6.60;;;;;;;23.12;32.69;101166.65;104552;1308;62099;-81
2022/02/11 15:06:52;;;;;;;10.40;7.20;;;;;;;23.12;32.64;101168.83;104521;1308;73979;-86
2022/02/11 15:09:27;;;;;;;9.70;7.00;;;;;;;23.13;32.76;101171.09;104618;1308;76623;-83
2022/02/11 15:12:05;;;;;;;9.70;7.10;;;;;;;23.13;32.58;101173.95;104444;1308;62160;-85
2022/02/11 15:14:40;;;;;;;10.30;7.40;;;;;;;23.14;32.63;101171.95;104445;1310;62003;-85
2022/02/11 15:17:06;;;;;;;9.90;6.80;;;;;;;23.14;32.72;101177.85;104467;1308;74455;-83
2022/02/11 15:19:40;;;;;;;8.70;6.30;;;;;;;23.14;32.56;101173.91;104464;1308;74538;-83
2022/02/11 15:22:24;;;;;;;10.30;6.70;;;;;;;23.14;32.69;101176.98;104492;1308;62125;-82
2022/02/11 15:25:16;;;;;;;11.90;7.20;;;;;;;23.14;32.62;101175.89;104518;1306;62028;-82
2022/02/11 15:27:52;;;;;;;;;;;;;;;;;;;;;
2022/02/11 15:30:37;;;;;;;9.60;6.30;;;;;;;23.14;32.75;101174.83;104658;1308;75594;-84
2022/02/11 15:33:14;;;;;;;10.30;6.80;;;;;;;23.14;32.62;101174.98;104532;1308;61978;-85
2022/02/11 15:35:51;;;;;;;9.40;6.90;;;;;;;23.14;32.87;101175.55;104456;1308;62078;-83
2022/02/11 15:38:22;;;;;;;8.60;6.80;;;;;;;23.14;32.69;101178.23;104276;1310;73982;-81
2022/02/11 15:40:48;;;;;;;9.20;6.60;;;;;;;23.15;32.71;101178.00;104342;1308;76469;-81
2022/02/11 15:43:26;;;;;;;9.30;6.90;;;;;;;23.15;32.97;101176.37;104605;1308;60527;-87